createdAt,value
2019-04-21T00:01:22.521Z,73.91
2019-04-21T00:03:53.919Z,74.29
2019-04-21T00:06:36.944Z,74.72
2019-04-21T00:09:02.698Z,74.91
2019-04-21T00:11:29.978Z,75.13
2019-04-21T00:13:46.997Z,75.60
2019-04-21T00:16:06.827Z,76.13
2019-04-21T00:18:29.636Z,76.20
2019-04-21T00:20:56.317Z,76.43
2019-04-21T00:23:38.844Z,76.66
2019-04-21T00:25:56.365Z,77.23
2019-04-21T00:28:33.353Z,77.13
2019-04-21T00:30:58.116Z,77.35
2019-04-21T00:33:12.284Z,77.24
2019-04-21T00:35:39.549Z,77.92
2019-04-21T00:38:17.159Z,78.38
2019-04-21T00:40:50.440Z,77.92
2019-04-21T00:43:07.824Z,76.64
2019-04-21T00:45:31.583Z,76.74
2019-04-21T00:48:03.945Z,77.05
2019-04-21T00:50:34.257Z,75.99
2019-04-21T00:55:33.953Z,75.37
2019-04-21T01:00:20.692Z,76.00
2019-04-21T01:05:10.917Z,75.66
2019-04-21T01:07:36.061Z,76.60
2019-04-21T01:09:53.938Z,76.43
2019-04-21T01:12:26.807Z,75.65
2019-04-21T01:14:55.336Z,75.88
2019-04-21T01:17:23.289Z,76.53
2019-04-21T01:19:41.086Z,75.72
2019-04-21T01:21:51.214Z,75.52
2019-04-21T01:24:24.586Z,75.22
2019-04-21T01:26:54.311Z,74.81
2019-04-21T01:29:33.863Z,75.39
2019-04-21T01:32:03.726Z,75.34
2019-04-21T01:34:23.299Z,75.74
2019-04-21T01:36:46.141Z,76.12
2019-04-21T01:39:17.456Z,76.29
2019-04-21T01:41:49.194Z,76.58
2019-04-21T01:44:04.866Z,76.03
2019-04-21T01:46:32.259Z,76.26
2019-04-21T01:48:59.362Z,76.14
2019-04-21T01:51:24.952Z,76.43
2019-04-21T01:53:55.063Z,76.26
2019-04-21T01:56:17.010Z,75.84
2019-04-21T01:58:40.236Z,75.92
2019-04-21T02:01:09.319Z,75.64
2019-04-21T02:06:11.115Z,75.48
2019-04-21T02:08:34.085Z,75.74
2019-04-21T02:11:00.548Z,76.11
2019-04-21T02:13:21.403Z,75.62
2019-04-21T02:15:56.122Z,75.18
2019-04-21T02:18:19.111Z,75.15
2019-04-21T02:20:32.642Z,75.46
2019-04-21T02:25:40.630Z,75.04
2019-04-21T02:28:03.500Z,74.94
2019-04-21T02:30:55.289Z,75.01
2019-04-21T02:33:27.997Z,75.70
2019-04-21T02:42:56.142Z,76.67
2019-04-21T02:45:17.131Z,76.75
2019-04-21T02:50:11.890Z,76.81
2019-04-21T02:55:02.678Z,77.24
2019-04-21T03:00:00.142Z,77.99
2019-04-21T03:02:25.720Z,78.06
2019-04-21T03:14:50.244Z,77.94
2019-04-21T03:16:55.595Z,78.41
2019-04-21T03:19:30.059Z,77.66
2019-04-21T03:22:01.980Z,78.51
2019-04-21T03:24:31.201Z,78.16
2019-04-21T03:26:51.546Z,78.47
2019-04-21T03:29:11.857Z,78.12
2019-04-21T03:32:06.425Z,79.30
2019-04-21T03:36:56.906Z,80.43
2019-04-21T03:41:18.874Z,79.98
2019-04-21T03:43:54.657Z,79.73
2019-04-21T03:46:15.971Z,79.62
2019-04-21T03:48:41.061Z,79.21
2019-04-21T03:51:12.545Z,79.26
2019-04-21T03:53:31.990Z,79.10
2019-04-21T03:56:01.339Z,79.49
2019-04-21T03:58:44.930Z,79.03
2019-04-21T04:01:02.916Z,79.01
2019-04-21T04:03:42.143Z,78.72
2019-04-21T04:05:59.648Z,79.30
2019-04-21T04:08:28.692Z,78.47
2019-04-21T04:10:42.691Z,78.43
2019-04-21T04:13:07.351Z,79.10
2019-04-21T04:15:38.682Z,79.35
2019-04-21T04:17:53.958Z,79.58
2019-04-21T04:20:28.094Z,79.28
2019-04-21T04:30:12.404Z,78.19
2019-04-21T04:32:38.623Z,77.77
2019-04-21T04:35:03.849Z,76.00
2019-04-21T04:37:31.927Z,74.91
2019-04-21T04:40:05.691Z,74.51
2019-04-21T04:49:47.967Z,74.21
2019-04-21T04:54:49.143Z,70.19
2019-04-21T04:59:33.776Z,66.08
2019-04-21T05:04:20.522Z,63.24
2019-04-21T05:06:51.228Z,63.49
2019-04-21T05:09:13.289Z,62.87
2019-04-21T05:11:46.084Z,62.22
2019-04-21T05:19:06.493Z,60.13
2019-04-21T05:21:30.267Z,58.99
2019-04-21T05:23:37.629Z,58.48
2019-04-21T05:26:00.090Z,57.68
2019-04-21T05:28:24.068Z,58.69
2019-04-21T05:31:04.372Z,58.91
2019-04-21T05:33:27.552Z,58.57
2019-04-21T05:35:53.051Z,58.09
2019-04-21T05:38:10.237Z,58.26
2019-04-21T05:40:37.383Z,57.28
2019-04-21T05:43:14.107Z,56.99
2019-04-21T05:45:34.786Z,56.27
2019-04-21T05:48:12.077Z,57.22
2019-04-21T05:50:26.565Z,56.17
2019-04-21T05:52:51.938Z,55.91
2019-04-21T05:55:26.148Z,55.54
2019-04-21T05:57:47.844Z,55.02
2019-04-21T06:00:19.677Z,55.64
2019-04-21T06:02:42.010Z,55.46
2019-04-21T06:05:21.988Z,53.92
2019-04-21T06:07:34.928Z,53.77
2019-04-21T06:09:59.974Z,54.31
2019-04-21T06:12:29.769Z,53.68
2019-04-21T06:14:54.778Z,53.91
2019-04-21T06:17:28.378Z,53.13
2019-04-21T06:19:49.361Z,52.09
2019-04-21T06:22:07.724Z,51.75
2019-04-21T06:24:51.014Z,51.07
2019-04-21T06:27:22.499Z,50.83
2019-04-21T06:29:33.117Z,50.50
2019-04-21T06:32:21.908Z,50.45
2019-04-21T06:34:24.416Z,50.16
2019-04-21T06:39:28.311Z,49.21
2019-04-21T06:41:42.562Z,49.25
2019-04-21T06:44:12.946Z,48.25
2019-04-21T06:46:36.653Z,48.95
2019-04-21T06:51:32.302Z,48.13
2019-04-21T06:53:59.704Z,48.39
2019-04-21T06:56:23.823Z,47.01
2019-04-21T06:58:42.885Z,47.22
2019-04-21T07:01:17.235Z,46.88
2019-04-21T07:03:42.168Z,46.87
2019-04-21T07:06:09.362Z,46.00
2019-04-21T07:08:42.061Z,44.99
2019-04-21T07:10:56.741Z,44.84
2019-04-21T07:13:22.235Z,46.37
2019-04-21T07:15:53.140Z,45.62
2019-04-21T07:18:21.498Z,46.10
2019-04-21T07:20:45.046Z,44.48
2019-04-21T07:23:11.895Z,43.21
2019-04-21T07:25:39.018Z,42.59
2019-04-21T07:28:17.547Z,42.56
2019-04-21T07:30:32.757Z,41.89
2019-04-21T07:33:07.170Z,43.46
2019-04-21T07:35:22.152Z,42.79
2019-04-21T07:37:51.024Z,41.94
2019-04-21T07:40:09.467Z,41.73
2019-04-21T07:42:32.864Z,41.32
2019-04-21T07:44:57.592Z,40.19
2019-04-21T07:47:30.613Z,40.67
2019-04-21T07:50:00.524Z,39.85
2019-04-21T07:52:22.123Z,40.14
2019-04-21T07:54:57.559Z,39.88
2019-04-21T07:57:13.002Z,40.46
2019-04-21T07:59:52.024Z,39.48
2019-04-21T08:02:12.177Z,39.60
2019-04-21T08:06:56.670Z,39.01
2019-04-21T08:09:27.635Z,37.65
2019-04-21T08:11:50.041Z,35.85
2019-04-21T08:14:24.311Z,36.95
2019-04-21T08:16:53.966Z,36.41
2019-04-21T08:19:13.004Z,36.99
2019-04-21T08:21:41.996Z,37.35
2019-04-21T08:24:06.191Z,36.97
2019-04-21T08:26:38.345Z,37.02
2019-04-21T08:29:07.790Z,35.78
2019-04-21T08:31:34.407Z,35.80
2019-04-21T08:33:55.391Z,36.33
2019-04-21T08:41:08.691Z,36.26
2019-04-21T08:46:01.966Z,35.63
2019-04-21T08:48:29.110Z,34.53
2019-04-21T08:51:06.287Z,34.54
2019-04-21T08:53:19.612Z,34.26
2019-04-21T09:00:45.189Z,32.68
2019-04-21T09:03:09.191Z,31.86
2019-04-21T09:05:34.280Z,31.63
2019-04-21T09:07:57.156Z,31.75
2019-04-21T09:10:22.308Z,30.67
2019-04-21T09:12:50.485Z,30.37
2019-04-21T09:15:19.098Z,29.90
2019-04-21T09:17:37.738Z,29.90
2019-04-21T09:20:20.953Z,28.59
2019-04-21T09:22:37.827Z,29.44
2019-04-21T09:25:05.891Z,30.43
2019-04-21T09:27:29.342Z,29.70
2019-04-21T09:29:44.690Z,30.29
2019-04-21T09:32:03.793Z,28.19
2019-04-21T09:34:35.931Z,28.47
2019-04-21T09:37:12.685Z,27.65
2019-04-21T09:39:25.575Z,26.91
2019-04-21T09:41:49.928Z,27.79
2019-04-21T09:44:22.071Z,26.87
2019-04-21T09:46:46.619Z,27.39
2019-04-21T09:49:12.111Z,27.98
2019-04-21T09:51:34.503Z,26.29
2019-04-21T09:54:05.792Z,25.45
2019-04-21T09:56:37.677Z,23.96
2019-04-21T09:59:07.219Z,22.67
2019-04-21T10:01:26.821Z,23.78
2019-04-21T10:03:48.683Z,22.94
2019-04-21T10:06:13.948Z,23.20
2019-04-21T10:08:38.606Z,22.97
2019-04-21T10:11:05.325Z,23.51
2019-04-21T10:13:31.740Z,23.12
2019-04-21T10:15:56.630Z,22.67
2019-04-21T10:18:22.953Z,21.86
2019-04-21T10:20:49.300Z,22.58
2019-04-21T10:23:15.702Z,22.96
2019-04-21T10:25:42.869Z,22.33
2019-04-21T10:28:08.272Z,23.32
2019-04-21T10:30:34.774Z,23.26
2019-04-21T10:33:00.913Z,23.24
2019-04-21T10:35:27.234Z,21.67
2019-04-21T10:38:05.729Z,21.89
2019-04-21T10:40:21.168Z,22.31
2019-04-21T10:42:46.195Z,21.95
2019-04-21T10:45:12.751Z,22.56
2019-04-21T10:47:39.161Z,23.02
2019-04-21T10:50:06.651Z,22.17
2019-04-21T10:52:34.023Z,22.45
2019-04-21T10:55:23.378Z,22.64
2019-04-21T10:57:24.596Z,23.73
2019-04-21T10:59:53.861Z,23.70
2019-04-21T11:02:17.329Z,23.71
2019-04-21T11:04:44.047Z,24.15
2019-04-21T11:07:14.052Z,24.02
2019-04-21T11:09:36.270Z,24.59
2019-04-21T11:12:03.990Z,24.16
2019-04-21T11:14:29.386Z,23.96
2019-04-21T11:16:56.601Z,23.66
2019-04-21T11:19:22.135Z,22.79
2019-04-21T11:21:49.206Z,22.73
2019-04-21T11:24:14.351Z,22.34
2019-04-21T11:26:40.551Z,22.87
2019-04-21T11:29:07.289Z,23.37
2019-04-21T11:31:33.431Z,23.43
2019-04-21T11:34:00.782Z,24.18
2019-04-21T11:36:26.998Z,24.10
2019-04-21T11:39:07.253Z,24.13
2019-04-21T11:41:19.420Z,24.30
2019-04-21T11:43:45.481Z,25.07
2019-04-21T11:46:12.757Z,24.98
2019-04-21T11:48:38.051Z,24.80
2019-04-21T11:51:04.738Z,25.02
2019-04-21T11:53:30.847Z,24.86
2019-04-21T11:55:57.113Z,24.67
2019-04-21T11:58:23.676Z,24.89
2019-04-21T12:00:50.885Z,24.91
2019-04-21T12:03:17.388Z,24.35
2019-04-21T12:05:43.498Z,24.73
2019-04-21T12:08:21.275Z,24.96
2019-04-21T12:10:35.545Z,25.26
2019-04-21T12:13:03.023Z,24.97
2019-04-21T12:15:29.095Z,25.19
2019-04-21T12:17:54.300Z,26.01
2019-04-21T12:20:20.915Z,26.69
2019-04-21T12:22:47.437Z,26.73
2019-04-21T12:25:13.397Z,26.29
2019-04-21T12:27:40.062Z,26.09
2019-04-21T12:30:06.042Z,26.33
2019-04-21T12:32:32.119Z,26.47
2019-04-21T12:34:59.711Z,25.30
2019-04-21T12:37:24.783Z,25.51
2019-04-21T12:39:52.485Z,25.31
2019-04-21T12:42:18.545Z,26.11
2019-04-21T12:44:43.767Z,26.33
2019-04-21T12:47:10.194Z,25.98
2019-04-21T12:49:36.414Z,26.47
2019-04-21T12:52:03.797Z,26.95
2019-04-21T12:54:29.860Z,26.63
2019-04-21T12:56:55.762Z,27.25
2019-04-21T12:59:21.774Z,26.43
2019-04-21T13:01:48.630Z,26.23
2019-04-21T13:04:15.614Z,26.54
2019-04-21T13:06:41.504Z,25.75
2019-04-21T13:09:10.720Z,26.30
2019-04-21T13:11:33.393Z,26.57
2019-04-21T13:13:59.907Z,26.73
2019-04-21T13:16:27.467Z,26.08
2019-04-21T13:18:53.432Z,26.52
2019-04-21T13:21:18.703Z,26.79
2019-04-21T13:23:45.184Z,26.95
2019-04-21T13:26:11.474Z,26.59
2019-04-21T13:28:37.775Z,26.97
2019-04-21T13:31:04.391Z,26.65
2019-04-21T13:33:31.246Z,26.32
2019-04-21T13:35:57.241Z,25.98
2019-04-21T13:38:32.567Z,26.05
2019-04-21T13:41:05.396Z,26.13
2019-04-21T13:43:16.951Z,26.28
2019-04-21T13:45:41.981Z,26.11
2019-04-21T13:48:08.423Z,26.15
2019-04-21T13:50:35.325Z,26.38
2019-04-21T13:53:00.972Z,26.80
2019-04-21T13:55:27.548Z,27.12
2019-04-21T13:57:54.512Z,27.21
2019-04-21T14:00:21.291Z,26.89
2019-04-21T14:02:46.990Z,27.28
2019-04-21T14:05:15.246Z,27.05
2019-04-21T14:07:38.919Z,27.12
2019-04-21T14:10:08.439Z,26.90
2019-04-21T14:12:31.657Z,27.12
2019-04-21T14:14:57.905Z,27.18
2019-04-21T14:17:24.669Z,27.08
2019-04-21T14:19:51.042Z,27.65
2019-04-21T14:22:18.014Z,27.39
2019-04-21T14:24:43.750Z,27.15
2019-04-21T14:27:10.177Z,27.08
2019-04-21T14:29:35.891Z,26.82
2019-04-21T14:32:02.225Z,26.25
2019-04-21T14:34:28.534Z,26.83
2019-04-21T14:36:55.046Z,27.37
2019-04-21T14:39:22.765Z,27.47
2019-04-21T14:41:48.309Z,27.38
2019-04-21T14:44:15.157Z,27.71
2019-04-21T14:46:40.178Z,27.85
2019-04-21T14:49:06.510Z,27.91
2019-04-21T14:51:32.826Z,27.57
2019-04-21T14:53:59.704Z,27.54
2019-04-21T14:56:25.505Z,27.88
2019-04-21T14:58:55.296Z,28.28
2019-04-21T15:01:18.162Z,28.45
2019-04-21T15:03:45.664Z,28.66
2019-04-21T15:06:11.622Z,28.93
2019-04-21T15:08:37.454Z,28.77
2019-04-21T15:11:03.488Z,28.94
2019-04-21T15:13:30.111Z,29.24
2019-04-21T15:15:56.307Z,29.12
2019-04-21T15:18:22.973Z,29.05
2019-04-21T15:20:50.466Z,29.18
2019-04-21T15:23:15.443Z,29.27
2019-04-21T15:25:41.979Z,28.85
2019-04-21T15:28:09.302Z,29.31
2019-04-21T15:30:34.517Z,29.00
2019-04-21T15:33:00.757Z,29.23
2019-04-21T15:35:27.079Z,29.26
2019-04-21T15:37:53.737Z,28.60
2019-04-21T15:40:31.503Z,28.75
2019-04-21T15:42:46.497Z,28.86
2019-04-21T15:45:12.783Z,28.83
2019-04-21T15:47:39.994Z,29.08
2019-04-21T15:50:10.175Z,29.00
2019-04-21T15:52:31.833Z,28.99
2019-04-21T15:54:58.944Z,29.21
2019-04-21T15:57:24.256Z,29.62
2019-04-21T15:59:50.745Z,29.39
2019-04-21T16:02:16.898Z,29.55
2019-04-21T16:04:43.215Z,29.65
2019-04-21T16:07:09.706Z,29.80
2019-04-21T16:09:37.550Z,29.56
2019-04-21T16:12:04.075Z,29.68
2019-04-21T16:14:29.138Z,29.75
2019-04-21T16:16:56.948Z,29.56
2019-04-21T16:19:23.039Z,29.82
2019-04-21T16:21:48.658Z,29.89
2019-04-21T16:24:14.417Z,29.90
2019-04-21T16:26:40.741Z,30.01
2019-04-21T16:29:07.209Z,29.96
2019-04-21T16:31:34.288Z,30.06
2019-04-21T16:34:00.949Z,30.05
2019-04-21T16:36:27.335Z,30.31
2019-04-21T16:38:53.610Z,30.41
2019-04-21T16:41:20.227Z,30.55
2019-04-21T16:43:45.099Z,30.84
2019-04-21T16:46:11.422Z,30.93
2019-04-21T16:48:37.893Z,31.29
2019-04-21T16:51:04.089Z,31.24
2019-04-21T16:53:30.415Z,31.46
2019-04-21T16:55:57.346Z,31.50
2019-04-21T16:58:26.621Z,31.57
2019-04-21T17:00:57.351Z,31.68
2019-04-21T17:03:16.635Z,31.89
2019-04-21T17:05:42.513Z,31.87
2019-04-21T17:08:08.345Z,31.88
2019-04-21T17:10:35.007Z,32.09
2019-04-21T17:13:02.299Z,32.04
2019-04-21T17:15:42.066Z,32.03
2019-04-21T17:18:07.597Z,32.28
2019-04-21T17:20:35.468Z,32.39
2019-04-21T17:22:46.300Z,32.51
2019-04-21T17:25:14.078Z,33.29
2019-04-21T17:27:39.120Z,34.24
2019-04-21T17:30:06.378Z,34.51
2019-04-21T17:32:37.195Z,34.72
2019-04-21T17:34:58.105Z,34.35
2019-04-21T17:37:26.820Z,34.60
2019-04-21T17:39:50.613Z,34.84
2019-04-21T17:42:26.473Z,35.26
2019-04-21T17:44:43.390Z,35.30
2019-04-21T17:47:21.804Z,35.31
2019-04-21T17:49:37.153Z,35.31
2019-04-21T17:52:06.381Z,34.89
2019-04-21T17:54:35.659Z,35.57
2019-04-21T17:57:20.276Z,35.45
2019-04-21T17:59:50.680Z,35.89
2019-04-21T18:02:03.977Z,34.96
2019-04-21T18:04:30.744Z,35.71
2019-04-21T18:06:54.417Z,36.88
2019-04-21T18:09:28.713Z,37.13
2019-04-21T18:11:53.946Z,37.39
2019-04-21T18:13:59.744Z,37.33
2019-04-21T18:16:34.299Z,38.04
2019-04-21T18:18:52.976Z,38.13
2019-04-21T18:21:18.733Z,38.64
2019-04-21T18:23:56.341Z,37.88
2019-04-21T18:26:24.649Z,37.34
2019-04-21T18:28:38.867Z,37.75
2019-04-21T18:31:06.727Z,37.97
2019-04-21T18:33:35.523Z,38.64
2019-04-21T18:35:59.702Z,38.99
2019-04-21T18:38:29.556Z,38.87
2019-04-21T18:40:54.272Z,39.37
2019-04-21T18:43:50.178Z,39.46
2019-04-21T18:46:06.887Z,39.62
2019-04-21T18:48:19.429Z,39.97
2019-04-21T18:50:45.637Z,40.28
2019-04-21T18:53:14.423Z,40.91
2019-04-21T18:55:34.500Z,40.94
2019-04-21T18:57:56.312Z,41.14
2019-04-21T19:00:26.214Z,41.52
2019-04-21T19:02:51.778Z,41.53
2019-04-21T19:05:19.136Z,41.75
2019-04-21T19:08:00.559Z,42.06
2019-04-21T19:10:36.276Z,42.48
2019-04-21T19:15:16.310Z,42.32
2019-04-21T19:18:25.385Z,43.01
2019-04-21T19:20:11.783Z,42.67
2019-04-21T19:22:38.152Z,43.05
2019-04-21T19:25:10.868Z,43.35
2019-04-21T19:27:28.106Z,43.62
2019-04-21T19:34:35.974Z,43.32
2019-04-21T19:37:03.975Z,43.23
2019-04-21T19:39:39.168Z,43.20
2019-04-21T19:42:00.527Z,43.15
2019-04-21T19:44:35.196Z,43.14
2019-04-21T19:47:00.026Z,43.12
2019-04-21T19:49:35.036Z,42.99
2019-04-21T19:51:48.486Z,43.15
2019-04-21T19:54:11.017Z,43.27
2019-04-21T19:56:27.933Z,43.16
2019-04-21T19:58:53.256Z,43.22
2019-04-21T20:01:19.590Z,43.16
2019-04-21T20:03:49.860Z,43.39
2019-04-21T20:06:31.585Z,43.57
2019-04-21T20:09:00.693Z,43.88
2019-04-21T20:11:27.111Z,43.94
2019-04-21T20:14:33.943Z,43.95
2019-04-21T20:16:19.033Z,43.93
2019-04-21T20:18:32.569Z,44.32
2019-04-21T20:20:50.307Z,44.68
2019-04-21T20:23:22.886Z,45.51
2019-04-21T20:25:49.060Z,46.28
2019-04-21T20:28:21.401Z,47.04
2019-04-21T20:30:58.420Z,46.98
2019-04-21T20:33:41.324Z,46.70
2019-04-21T20:35:51.993Z,47.83
2019-04-21T20:38:09.443Z,48.92
2019-04-21T20:40:30.893Z,49.36
2019-04-21T20:43:08.694Z,48.69
2019-04-21T20:45:49.425Z,49.42
2019-04-21T20:47:44.750Z,49.69
2019-04-21T20:50:22.802Z,49.32
2019-04-21T20:52:54.069Z,48.95
2019-04-21T20:55:11.991Z,48.54
2019-04-21T20:57:40.823Z,48.49
2019-04-21T21:00:16.818Z,48.51
2019-04-21T21:02:36.702Z,48.97
2019-04-21T21:04:51.570Z,49.18
2019-04-21T21:07:40.442Z,49.15
2019-04-21T21:10:01.207Z,49.23
2019-04-21T21:12:28.993Z,49.64
2019-04-21T21:14:41.992Z,49.70
2019-04-21T21:17:25.381Z,49.87
2019-04-21T21:19:43.871Z,49.79
2019-04-21T21:22:01.448Z,49.84
2019-04-21T21:24:36.418Z,49.71
2019-04-21T21:26:58.176Z,49.42
2019-04-21T21:29:26.451Z,49.43
2019-04-21T21:32:04.276Z,49.49
2019-04-21T21:34:25.903Z,49.88
2019-04-21T21:36:41.556Z,49.94
2019-04-21T21:39:12.908Z,49.79
2019-04-21T21:41:26.561Z,50.00
2019-04-21T21:43:51.497Z,49.88
2019-04-21T21:46:30.951Z,50.22
2019-04-21T21:48:52.945Z,50.10
2019-04-21T21:51:15.481Z,49.79
2019-04-21T21:53:34.145Z,50.31
2019-04-21T21:55:58.539Z,49.99
2019-04-21T21:58:27.467Z,50.27
2019-04-21T22:00:56.472Z,50.30
2019-04-21T22:03:24.460Z,50.18
2019-04-21T22:05:48.897Z,50.25
2019-04-21T22:08:10.152Z,49.98
2019-04-21T22:10:35.210Z,50.01
2019-04-21T22:13:07.194Z,50.09
2019-04-21T22:15:30.349Z,49.92
2019-04-21T22:18:14.659Z,49.89
2019-04-21T22:20:37.564Z,50.19
2019-04-21T22:22:56.375Z,50.38
2019-04-21T22:25:21.862Z,50.51
2019-04-21T22:27:39.458Z,50.79
2019-04-21T22:30:07.827Z,50.79
2019-04-21T22:32:34.623Z,50.64
2019-04-21T22:35:03.757Z,51.02
2019-04-21T22:37:38.784Z,51.32
2019-04-21T22:40:04.474Z,51.61
2019-04-21T22:42:22.395Z,51.62
2019-04-21T22:44:43.710Z,52.08
2019-04-21T22:47:16.918Z,51.77
2019-04-21T22:49:36.867Z,51.67
2019-04-21T22:52:10.379Z,51.57
2019-04-21T22:54:35.457Z,51.60
2019-04-21T22:57:02.595Z,51.92
2019-04-21T22:59:24.106Z,51.95
2019-04-21T23:01:50.387Z,51.97
2019-04-21T23:04:15.856Z,52.10
2019-04-21T23:06:41.254Z,52.20
2019-04-21T23:09:07.157Z,52.48
2019-04-21T23:11:37.384Z,52.58
2019-04-21T23:14:04.258Z,53.09
2019-04-21T23:16:31.648Z,53.60
2019-04-21T23:19:13.099Z,54.03
2019-04-21T23:21:30.361Z,54.00
2019-04-21T23:24:05.855Z,54.15
2019-04-21T23:26:29.770Z,53.84
2019-04-21T23:28:56.828Z,54.28
2019-04-21T23:31:24.491Z,54.89
2019-04-21T23:33:31.454Z,55.55
2019-04-21T23:36:03.989Z,55.50
2019-04-21T23:38:29.244Z,55.75
2019-04-21T23:40:55.914Z,55.96
2019-04-21T23:43:20.960Z,56.99
2019-04-21T23:45:44.830Z,57.62
2019-04-21T23:48:19.780Z,58.37
2019-04-21T23:50:45.856Z,58.94
2019-04-21T23:53:01.615Z,59.43
2019-04-21T23:55:27.392Z,60.23
2019-04-21T23:58:04.944Z,60.36
